sensor_id;sensor_type;location;lat;lon;timestamp;temperature;humidity
8780;DHT22;62328;51.19929245;4.42130175;2023-02-28T00:01:21;4.40;99.90
8780;DHT22;62328;51.19929245;4.42130175;2023-02-28T00:03:48;4.50;99.90
8780;DHT22;62328;51.19929245;4.42130175;2023-02-28T00:06:15;4.40;99.90
8780;DHT22;62328;51.19929245;4.42130175;2023-02-28T00:08:42;4.40;99.90
8780;DHT22;62328;51.19929245;4.42130175;2023-02-28T00:11:10;4.40;99.90
8780;DHT22;62328;51.19929245;4.42130175;2023-02-28T00:13:40;4.40;99.90
8780;DHT22;62328;51.19929245;4.42130175;2023-02-28T00:16:11;4.40;99.90
8780;DHT22;62328;51.19929245;4.42130175;2023-02-28T00:18:38;4.30;99.90
8780;DHT22;62328;51.19929245;4.42130175;2023-02-28T00:21:06;4.30;99.90
8780;DHT22;62328;51.19929245;4.42130175;2023-02-28T00:23:33;4.30;99.90
8780;DHT22;62328;51.19929245;4.42130175;2023-02-28T00:26:01;4.30;99.90
8780;DHT22;62328;51.19929245;4.42130175;2023-02-28T00:28:27;4.20;99.90
8780;DHT22;62328;51.19929245;4.42130175;2023-02-28T00:30:54;4.20;99.90
8780;DHT22;62328;51.19929245;4.42130175;2023-02-28T00:33:24;4.20;99.90
8780;DHT22;62328;51.19929245;4.42130175;2023-02-28T00:35:50;4.10;99.90
8780;DHT22;62328;51.19929245;4.42130175;2023-02-28T00:38:17;4.10;99.90
8780;DHT22;62328;51.19929245;4.42130175;2023-02-28T00:40:44;4.10;99.90
8780;DHT22;62328;51.19929245;4.42130175;2023-02-28T00:43:11;4.10;99.90
8780;DHT22;62328;51.19929245;4.42130175;2023-02-28T00:45:38;4.10;99.90
8780;DHT22;62328;51.19929245;4.42130175;2023-02-28T00:48:05;4.10;99.90
8780;DHT22;62328;51.19929245;4.42130175;2023-02-28T00:50:33;4.10;99.90
8780;DHT22;62328;51.19929245;4.42130175;2023-02-28T00:53:00;4.00;99.90
8780;DHT22;62328;51.19929245;4.42130175;2023-02-28T00:55:27;4.00;99.90
8780;DHT22;62328;51.19929245;4.42130175;2023-02-28T00:57:54;4.00;99.90
8780;DHT22;62328;51.19929245;4.42130175;2023-02-28T01:00:21;4.00;99.90
8780;DHT22;62328;51.19929245;4.42130175;2023-02-28T01:02:48;4.00;99.90
8780;DHT22;62328;51.19929245;4.42130175;2023-02-28T01:05:15;4.00;99.90
8780;DHT22;62328;51.19929245;4.42130175;2023-02-28T01:07:43;4.00;99.90
8780;DHT22;62328;51.19929245;4.42130175;2023-02-28T01:10:10;4.00;99.90
8780;DHT22;62328;51.19929245;4.42130175;2023-02-28T01:12:37;4.00;99.90
8780;DHT22;62328;51.19929245;4.42130175;2023-02-28T01:15:05;4.00;99.90
8780;DHT22;62328;51.19929245;4.42130175;2023-02-28T01:17:32;4.00;99.90
8780;DHT22;62328;51.19929245;4.42130175;2023-02-28T01:19:59;4.00;99.90
8780;DHT22;62328;51.19929245;4.42130175;2023-02-28T01:22:26;4.00;99.90
8780;DHT22;62328;51.19929245;4.42130175;2023-02-28T01:24:55;4.00;99.90
8780;DHT22;62328;51.19929245;4.42130175;2023-02-28T01:27:21;4.00;99.90
8780;DHT22;62328;51.19929245;4.42130175;2023-02-28T01:29:48;4.00;99.90
8780;DHT22;62328;51.19929245;4.42130175;2023-02-28T01:32:16;3.90;99.90
8780;DHT22;62328;51.19929245;4.42130175;2023-02-28T01:34:43;4.00;99.90
8780;DHT22;62328;51.19929245;4.42130175;2023-02-28T01:37:10;3.90;99.90
8780;DHT22;62328;51.19929245;4.42130175;2023-02-28T01:39:37;3.90;99.90
8780;DHT22;62328;51.19929245;4.42130175;2023-02-28T01:42:07;3.90;99.90
8780;DHT22;62328;51.19929245;4.42130175;2023-02-28T01:44:57;3.80;99.90
8780;DHT22;62328;51.19929245;4.42130175;2023-02-28T01:47:28;3.80;99.90
8780;DHT22;62328;51.19929245;4.42130175;2023-02-28T01:49:56;3.80;99.90
8780;DHT22;62328;51.19929245;4.42130175;2023-02-28T01:52:23;3.80;99.90
8780;DHT22;62328;51.19929245;4.42130175;2023-02-28T01:54:53;3.80;99.90
8780;DHT22;62328;51.19929245;4.42130175;2023-02-28T01:57:25;3.70;99.90
8780;DHT22;62328;51.19929245;4.42130175;2023-02-28T01:59:57;3.70;99.90
8780;DHT22;62328;51.19929245;4.42130175;2023-02-28T02:02:26;3.70;99.90
8780;DHT22;62328;51.19929245;4.42130175;2023-02-28T02:04:57;3.70;99.90
8780;DHT22;62328;51.19929245;4.42130175;2023-02-28T02:07:29;3.70;99.90
8780;DHT22;62328;51.19929245;4.42130175;2023-02-28T02:10:03;3.70;99.90
8780;DHT22;62328;51.19929245;4.42130175;2023-02-28T02:12:42;3.60;99.90
8780;DHT22;62328;51.19929245;4.42130175;2023-02-28T02:15:14;3.60;99.90
8780;DHT22;62328;51.19929245;4.42130175;2023-02-28T02:17:45;3.60;99.90
8780;DHT22;62328;51.19929245;4.42130175;2023-02-28T02:20:52;3.50;99.90
8780;DHT22;62328;51.19929245;4.42130175;2023-02-28T02:24:03;3.60;99.90
8780;DHT22;62328;51.19929245;4.42130175;2023-02-28T02:26:47;3.60;99.90
8780;DHT22;62328;51.19929245;4.42130175;2023-02-28T02:33:01;3.50;99.90
8780;DHT22;62328;51.19929245;4.42130175;2023-02-28T02:35:34;3.60;99.90
8780;DHT22;62328;51.19929245;4.42130175;2023-02-28T02:38:09;3.60;99.90
8780;DHT22;62328;51.19929245;4.42130175;2023-02-28T02:40:43;3.50;99.90
8780;DHT22;62328;51.19929245;4.42130175;2023-02-28T02:43:15;3.50;99.90
8780;DHT22;62328;51.19929245;4.42130175;2023-02-28T02:45:47;3.50;99.90
8780;DHT22;62328;51.19929245;4.42130175;2023-02-28T02:48:17;3.50;99.90
8780;DHT22;62328;51.19929245;4.42130175;2023-02-28T02:50:49;3.50;99.90
8780;DHT22;62328;51.19929245;4.42130175;2023-02-28T02:53:19;3.50;99.90
8780;DHT22;62328;51.19929245;4.42130175;2023-02-28T02:55:49;3.40;99.90
8780;DHT22;62328;51.19929245;4.42130175;2023-02-28T02:58:23;3.50;99.90
8780;DHT22;62328;51.19929245;4.42130175;2023-02-28T03:00:53;3.50;99.90
8780;DHT22;62328;51.19929245;4.42130175;2023-02-28T03:03:22;3.50;99.90
8780;DHT22;62328;51.19929245;4.42130175;2023-02-28T03:05:57;3.50;99.90
8780;DHT22;62328;51.19929245;4.42130175;2023-02-28T03:08:25;3.40;99.90
8780;DHT22;62328;51.19929245;4.42130175;2023-02-28T03:10:56;3.50;99.90
8780;DHT22;62328;51.19929245;4.42130175;2023-02-28T03:13:43;3.50;99.90
8780;DHT22;62328;51.19929245;4.42130175;2023-02-28T03:16:34;3.20;99.90
8780;DHT22;62328;51.19929245;4.42130175;2023-02-28T03:19:23;3.50;99.90
8780;DHT22;62328;51.19929245;4.42130175;2023-02-28T03:22:05;3.40;99.90
8780;DHT22;62328;51.19929245;4.42130175;2023-02-28T03:24:43;3.40;99.90
8780;DHT22;62328;51.19929245;4.42130175;2023-02-28T03:27:15;3.40;99.90
8780;DHT22;62328;51.19929245;4.42130175;2023-02-28T03:29:47;3.40;99.90
8780;DHT22;62328;51.19929245;4.42130175;2023-02-28T03:32:20;3.40;99.90
8780;DHT22;62328;51.19929245;4.42130175;2023-02-28T03:34:56;3.40;99.90
8780;DHT22;62328;51.19929245;4.42130175;2023-02-28T03:37:28;3.40;99.90
8780;DHT22;62328;51.19929245;4.42130175;2023-02-28T03:40:01;3.40;99.90
8780;DHT22;62328;51.19929245;4.42130175;2023-02-28T03:42:33;3.50;99.90
8780;DHT22;62328;51.19929245;4.42130175;2023-02-28T03:45:04;3.90;99.90
8780;DHT22;62328;51.19929245;4.42130175;2023-02-28T03:47:35;3.50;99.90
8780;DHT22;62328;51.19929245;4.42130175;2023-02-28T03:50:07;3.50;99.90
8780;DHT22;62328;51.19929245;4.42130175;2023-02-28T03:52:44;3.60;99.90
8780;DHT22;62328;51.19929245;4.42130175;2023-02-28T03:55:13;3.60;99.90
8780;DHT22;62328;51.19929245;4.42130175;2023-02-28T03:57:52;3.60;99.90
8780;DHT22;62328;51.19929245;4.42130175;2023-02-28T04:00:27;3.70;99.90
8780;DHT22;62328;51.19929245;4.42130175;2023-02-28T04:02:55;3.70;99.90
8780;DHT22;62328;51.19929245;4.42130175;2023-02-28T04:05:23;3.60;99.90
8780;DHT22;62328;51.19929245;4.42130175;2023-02-28T04:07:51;3.70;99.90
8780;DHT22;62328;51.19929245;4.42130175;2023-02-28T04:10:20;3.70;99.90
8780;DHT22;62328;51.19929245;4.42130175;2023-02-28T04:12:47;3.70;99.90
8780;DHT22;62328;51.19929245;4.42130175;2023-02-28T04:15:14;3.70;99.90
8780;DHT22;62328;51.19929245;4.42130175;2023-02-28T04:17:42;3.70;99.90
8780;DHT22;62328;51.19929245;4.42130175;2023-02-28T04:20:10;3.70;99.90
8780;DHT22;62328;51.19929245;4.42130175;2023-02-28T04:22:37;3.80;99.90
8780;DHT22;62328;51.19929245;4.42130175;2023-02-28T04:25:07;3.90;99.90
8780;DHT22;62328;51.19929245;4.42130175;2023-02-28T04:27:34;3.90;99.90
8780;DHT22;62328;51.19929245;4.42130175;2023-02-28T04:30:01;3.90;99.90
8780;DHT22;62328;51.19929245;4.42130175;2023-02-28T04:32:27;3.90;99.90
8780;DHT22;62328;51.19929245;4.42130175;2023-02-28T04:34:54;3.90;99.90
8780;DHT22;62328;51.19929245;4.42130175;2023-02-28T04:37:21;4.00;99.90
8780;DHT22;62328;51.19929245;4.42130175;2023-02-28T04:39:53;4.00;99.90
8780;DHT22;62328;51.19929245;4.42130175;2023-02-28T04:42:21;4.00;99.90
8780;DHT22;62328;51.19929245;4.42130175;2023-02-28T04:44:48;4.00;99.90
8780;DHT22;62328;51.19929245;4.42130175;2023-02-28T04:47:16;4.00;99.90
8780;DHT22;62328;51.19929245;4.42130175;2023-02-28T04:49:43;4.00;99.90
8780;DHT22;62328;51.19929245;4.42130175;2023-02-28T04:52:10;4.00;99.90
8780;DHT22;62328;51.19929245;4.42130175;2023-02-28T04:54:36;4.00;99.90
8780;DHT22;62328;51.19929245;4.42130175;2023-02-28T04:57:04;4.00;99.90
8780;DHT22;62328;51.19929245;4.42130175;2023-02-28T04:59:32;4.00;99.90
8780;DHT22;62328;51.19929245;4.42130175;2023-02-28T05:01:59;4.00;99.90
8780;DHT22;62328;51.19929245;4.42130175;2023-02-28T05:04:32;4.10;99.90
8780;DHT22;62328;51.19929245;4.42130175;2023-02-28T05:06:59;4.10;99.90
8780;DHT22;62328;51.19929245;4.42130175;2023-02-28T05:09:26;4.10;99.90
8780;DHT22;62328;51.19929245;4.42130175;2023-02-28T05:11:53;4.10;99.90
8780;DHT22;62328;51.19929245;4.42130175;2023-02-28T05:14:22;4.10;99.90
8780;DHT22;62328;51.19929245;4.42130175;2023-02-28T05:16:50;4.00;99.90
8780;DHT22;62328;51.19929245;4.42130175;2023-02-28T05:19:17;4.00;99.90
8780;DHT22;62328;51.19929245;4.42130175;2023-02-28T05:21:50;4.10;99.90
8780;DHT22;62328;51.19929245;4.42130175;2023-02-28T05:24:17;4.10;99.90
8780;DHT22;62328;51.19929245;4.42130175;2023-02-28T05:26:49;4.10;99.90
8780;DHT22;62328;51.19929245;4.42130175;2023-02-28T05:29:17;4.10;99.90
8780;DHT22;62328;51.19929245;4.42130175;2023-02-28T05:31:44;4.10;99.90
8780;DHT22;62328;51.19929245;4.42130175;2023-02-28T05:34:14;4.10;99.90
8780;DHT22;62328;51.19929245;4.42130175;2023-02-28T05:36:42;4.10;99.90
8780;DHT22;62328;51.19929245;4.42130175;2023-02-28T05:39:09;4.10;99.90
8780;DHT22;62328;51.19929245;4.42130175;2023-02-28T05:41:40;4.10;99.90
8780;DHT22;62328;51.19929245;4.42130175;2023-02-28T05:44:07;4.10;99.90
8780;DHT22;62328;51.19929245;4.42130175;2023-02-28T05:46:34;4.10;99.90
8780;DHT22;62328;51.19929245;4.42130175;2023-02-28T05:49:01;4.10;99.90
8780;DHT22;62328;51.19929245;4.42130175;2023-02-28T05:51:29;4.10;99.90
8780;DHT22;62328;51.19929245;4.42130175;2023-02-28T05:53:59;4.20;99.90
8780;DHT22;62328;51.19929245;4.42130175;2023-02-28T05:56:26;4.10;99.90
8780;DHT22;62328;51.19929245;4.42130175;2023-02-28T05:58:53;4.10;99.90
8780;DHT22;62328;51.19929245;4.42130175;2023-02-28T06:01:23;4.20;99.90
8780;DHT22;62328;51.19929245;4.42130175;2023-02-28T06:03:51;4.20;99.90
8780;DHT22;62328;51.19929245;4.42130175;2023-02-28T06:06:18;4.20;99.90
8780;DHT22;62328;51.19929245;4.42130175;2023-02-28T06:08:46;4.20;99.90
8780;DHT22;62328;51.19929245;4.42130175;2023-02-28T06:11:13;4.30;99.90
8780;DHT22;62328;51.19929245;4.42130175;2023-02-28T06:13:40;4.20;99.90
8780;DHT22;62328;51.19929245;4.42130175;2023-02-28T06:16:08;4.20;99.90
8780;DHT22;62328;51.19929245;4.42130175;2023-02-28T06:18:35;4.30;99.90
8780;DHT22;62328;51.19929245;4.42130175;2023-02-28T06:21:02;4.30;99.90
8780;DHT22;62328;51.19929245;4.42130175;2023-02-28T06:23:35;4.30;99.90
8780;DHT22;62328;51.19929245;4.42130175;2023-02-28T06:26:04;4.30;99.90
8780;DHT22;62328;51.19929245;4.42130175;2023-02-28T06:28:32;4.40;99.90
8780;DHT22;62328;51.19929245;4.42130175;2023-02-28T06:30:58;4.30;99.90
8780;DHT22;62328;51.19929245;4.42130175;2023-02-28T06:33:26;4.30;99.90
8780;DHT22;62328;51.19929245;4.42130175;2023-02-28T06:35:53;4.30;99.90
8780;DHT22;62328;51.19929245;4.42130175;2023-02-28T06:38:20;4.30;99.90
8780;DHT22;62328;51.19929245;4.42130175;2023-02-28T06:40:53;4.40;99.90
8780;DHT22;62328;51.19929245;4.42130175;2023-02-28T06:43:22;4.40;99.90
8780;DHT22;62328;51.19929245;4.42130175;2023-02-28T06:45:49;4.40;99.90
8780;DHT22;62328;51.19929245;4.42130175;2023-02-28T06:48:16;4.40;99.90
8780;DHT22;62328;51.19929245;4.42130175;2023-02-28T06:50:43;4.40;99.90
8780;DHT22;62328;51.19929245;4.42130175;2023-02-28T06:53:10;4.40;99.90
8780;DHT22;62328;51.19929245;4.42130175;2023-02-28T06:55:38;4.40;99.90
8780;DHT22;62328;51.19929245;4.42130175;2023-02-28T06:58:05;4.40;99.90
8780;DHT22;62328;51.19929245;4.42130175;2023-02-28T07:00:41;4.30;99.90
8780;DHT22;62328;51.19929245;4.42130175;2023-02-28T07:03:09;4.40;99.90
8780;DHT22;62328;51.19929245;4.42130175;2023-02-28T07:05:37;4.40;99.90
8780;DHT22;62328;51.19929245;4.42130175;2023-02-28T07:08:05;4.40;99.90
8780;DHT22;62328;51.19929245;4.42130175;2023-02-28T07:10:33;4.40;99.90
8780;DHT22;62328;51.19929245;4.42130175;2023-02-28T07:13:00;4.40;99.90
8780;DHT22;62328;51.19929245;4.42130175;2023-02-28T07:15:27;4.40;99.90
8780;DHT22;62328;51.19929245;4.42130175;2023-02-28T07:17:55;4.40;99.90
8780;DHT22;62328;51.19929245;4.42130175;2023-02-28T07:20:23;4.40;99.90
8780;DHT22;62328;51.19929245;4.42130175;2023-02-28T07:22:50;4.40;99.90
8780;DHT22;62328;51.19929245;4.42130175;2023-02-28T07:25:23;4.50;99.90
8780;DHT22;62328;51.19929245;4.42130175;2023-02-28T07:27:50;4.50;99.90
8780;DHT22;62328;51.19929245;4.42130175;2023-02-28T07:30:17;4.60;99.90
8780;DHT22;62328;51.19929245;4.42130175;2023-02-28T07:32:45;4.50;99.90
8780;DHT22;62328;51.19929245;4.42130175;2023-02-28T07:35:13;4.60;99.90
8780;DHT22;62328;51.19929245;4.42130175;2023-02-28T07:37:40;4.70;99.90
8780;DHT22;62328;51.19929245;4.42130175;2023-02-28T07:40:09;4.70;99.90
8780;DHT22;62328;51.19929245;4.42130175;2023-02-28T07:42:38;4.70;99.90
8780;DHT22;62328;51.19929245;4.42130175;2023-02-28T07:45:07;4.80;99.90
8780;DHT22;62328;51.19929245;4.42130175;2023-02-28T07:47:37;4.80;99.90
8780;DHT22;62328;51.19929245;4.42130175;2023-02-28T07:50:05;4.80;99.90
8780;DHT22;62328;51.19929245;4.42130175;2023-02-28T07:52:34;4.90;99.90
8780;DHT22;62328;51.19929245;4.42130175;2023-02-28T07:55:01;4.90;99.90
8780;DHT22;62328;51.19929245;4.42130175;2023-02-28T07:57:28;4.90;99.90
8780;DHT22;62328;51.19929245;4.42130175;2023-02-28T07:59:54;5.00;99.90
8780;DHT22;62328;51.19929245;4.42130175;2023-02-28T08:02:23;5.00;99.90
8780;DHT22;62328;51.19929245;4.42130175;2023-02-28T08:04:51;5.00;99.90
8780;DHT22;62328;51.19929245;4.42130175;2023-02-28T08:07:18;5.00;99.90
8780;DHT22;62328;51.19929245;4.42130175;2023-02-28T08:09:46;5.10;99.90
8780;DHT22;62328;51.19929245;4.42130175;2023-02-28T08:12:13;5.20;99.90
8780;DHT22;62328;51.19929245;4.42130175;2023-02-28T08:14:40;5.10;99.90
8780;DHT22;62328;51.19929245;4.42130175;2023-02-28T08:17:07;5.20;99.90
8780;DHT22;62328;51.19929245;4.42130175;2023-02-28T08:19:34;5.30;99.90
8780;DHT22;62328;51.19929245;4.42130175;2023-02-28T08:22:01;5.40;99.90
8780;DHT22;62328;51.19929245;4.42130175;2023-02-28T08:24:28;5.40;99.90
8780;DHT22;62328;51.19929245;4.42130175;2023-02-28T08:26:57;5.60;99.90
8780;DHT22;62328;51.19929245;4.42130175;2023-02-28T08:29:24;5.50;99.90
8780;DHT22;62328;51.19929245;4.42130175;2023-02-28T08:31:51;5.60;99.90
8780;DHT22;62328;51.19929245;4.42130175;2023-02-28T08:34:17;5.60;99.90
8780;DHT22;62328;51.19929245;4.42130175;2023-02-28T08:36:44;5.70;99.90
8780;DHT22;62328;51.19929245;4.42130175;2023-02-28T08:39:11;5.80;99.90
8780;DHT22;62328;51.19929245;4.42130175;2023-02-28T08:41:38;5.80;99.90
8780;DHT22;62328;51.19929245;4.42130175;2023-02-28T08:44:06;5.80;99.90
8780;DHT22;62328;51.19929245;4.42130175;2023-02-28T08:46:33;5.80;99.90
8780;DHT22;62328;51.19929245;4.42130175;2023-02-28T08:49:00;5.80;99.90
8780;DHT22;62328;51.19929245;4.42130175;2023-02-28T08:51:28;5.70;99.90
8780;DHT22;62328;51.19929245;4.42130175;2023-02-28T08:53:57;5.70;99.90
8780;DHT22;62328;51.19929245;4.42130175;2023-02-28T08:56:26;5.80;99.90
8780;DHT22;62328;51.19929245;4.42130175;2023-02-28T08:58:54;5.80;99.90
8780;DHT22;62328;51.19929245;4.42130175;2023-02-28T09:01:25;5.70;99.90
8780;DHT22;62328;51.19929245;4.42130175;2023-02-28T09:03:53;5.80;99.90
8780;DHT22;62328;51.19929245;4.42130175;2023-02-28T09:06:23;5.80;99.90
8780;DHT22;62328;51.19929245;4.42130175;2023-02-28T09:08:50;5.90;99.90
8780;DHT22;62328;51.19929245;4.42130175;2023-02-28T09:11:17;5.90;99.90
8780;DHT22;62328;51.19929245;4.42130175;2023-02-28T09:13:45;6.10;99.90
8780;DHT22;62328;51.19929245;4.42130175;2023-02-28T09:16:14;6.20;99.90
8780;DHT22;62328;51.19929245;4.42130175;2023-02-28T09:18:43;6.30;99.90
8780;DHT22;62328;51.19929245;4.42130175;2023-02-28T09:21:11;6.50;99.90
8780;DHT22;62328;51.19929245;4.42130175;2023-02-28T09:23:40;6.60;99.90
8780;DHT22;62328;51.19929245;4.42130175;2023-02-28T09:26:14;6.70;99.90
8780;DHT22;62328;51.19929245;4.42130175;2023-02-28T09:28:41;6.70;99.90
8780;DHT22;62328;51.19929245;4.42130175;2023-02-28T09:31:12;6.70;99.90
8780;DHT22;62328;51.19929245;4.42130175;2023-02-28T09:33:41;6.70;99.90
8780;DHT22;62328;51.19929245;4.42130175;2023-02-28T09:36:08;6.70;99.90
8780;DHT22;62328;51.19929245;4.42130175;2023-02-28T09:38:36;6.80;99.90
8780;DHT22;62328;51.19929245;4.42130175;2023-02-28T09:41:09;6.70;99.90
8780;DHT22;62328;51.19929245;4.42130175;2023-02-28T09:43:40;6.80;99.90
8780;DHT22;62328;51.19929245;4.42130175;2023-02-28T09:46:15;6.90;99.90
8780;DHT22;62328;51.19929245;4.42130175;2023-02-28T09:48:48;6.90;99.90
8780;DHT22;62328;51.19929245;4.42130175;2023-02-28T09:51:28;7.00;99.90
8780;DHT22;62328;51.19929245;4.42130175;2023-02-28T09:53:56;7.10;99.90
8780;DHT22;62328;51.19929245;4.42130175;2023-02-28T09:56:26;7.10;99.90
8780;DHT22;62328;51.19929245;4.42130175;2023-02-28T09:58:56;7.20;99.90
8780;DHT22;62328;51.19929245;4.42130175;2023-02-28T10:01:29;7.10;99.90
8780;DHT22;62328;51.19929245;4.42130175;2023-02-28T10:04:01;7.20;99.90
8780;DHT22;62328;51.19929245;4.42130175;2023-02-28T10:06:34;7.10;99.90
8780;DHT22;62328;51.19929245;4.42130175;2023-02-28T10:09:05;7.10;99.90
8780;DHT22;62328;51.19929245;4.42130175;2023-02-28T10:11:36;7.20;99.90
8780;DHT22;62328;51.19929245;4.42130175;2023-02-28T10:14:11;7.20;99.90
8780;DHT22;62328;51.19929245;4.42130175;2023-02-28T10:16:42;7.20;99.90
8780;DHT22;62328;51.19929245;4.42130175;2023-02-28T10:19:17;7.40;99.90
8780;DHT22;62328;51.19929245;4.42130175;2023-02-28T10:21:49;7.50;99.90
8780;DHT22;62328;51.19929245;4.42130175;2023-02-28T10:24:28;7.60;99.90
8780;DHT22;62328;51.19929245;4.42130175;2023-02-28T10:26:59;7.70;99.90
8780;DHT22;62328;51.19929245;4.42130175;2023-02-28T10:29:26;7.80;99.90
8780;DHT22;62328;51.19929245;4.42130175;2023-02-28T10:31:56;8.00;99.90
8780;DHT22;62328;51.19929245;4.42130175;2023-02-28T10:34:24;8.20;99.90
8780;DHT22;62328;51.19929245;4.42130175;2023-02-28T10:36:51;8.50;99.90
8780;DHT22;62328;51.19929245;4.42130175;2023-02-28T10:39:35;8.90;99.90
8780;DHT22;62328;51.19929245;4.42130175;2023-02-28T10:42:02;9.20;99.90
8780;DHT22;62328;51.19929245;4.42130175;2023-02-28T10:44:29;9.20;99.90
8780;DHT22;62328;51.19929245;4.42130175;2023-02-28T10:46:56;9.10;99.90
8780;DHT22;62328;51.19929245;4.42130175;2023-02-28T10:49:27;9.00;99.90
8780;DHT22;62328;51.19929245;4.42130175;2023-02-28T10:51:57;8.90;99.90
8780;DHT22;62328;51.19929245;4.42130175;2023-02-28T10:54:28;8.70;99.90
8780;DHT22;62328;51.19929245;4.42130175;2023-02-28T10:57:14;8.80;99.90
8780;DHT22;62328;51.19929245;4.42130175;2023-02-28T10:59:42;8.60;99.90
8780;DHT22;62328;51.19929245;4.42130175;2023-02-28T11:02:30;8.60;99.90
8780;DHT22;62328;51.19929245;4.42130175;2023-02-28T11:04:59;8.40;99.90
8780;DHT22;62328;51.19929245;4.42130175;2023-02-28T11:07:27;8.30;99.90
8780;DHT22;62328;51.19929245;4.42130175;2023-02-28T11:09:55;8.30;99.90
8780;DHT22;62328;51.19929245;4.42130175;2023-02-28T11:12:25;8.20;99.90
8780;DHT22;62328;51.19929245;4.42130175;2023-02-28T11:14:56;8.30;99.90
8780;DHT22;62328;51.19929245;4.42130175;2023-02-28T11:17:26;8.10;99.90
8780;DHT22;62328;51.19929245;4.42130175;2023-02-28T11:19:57;8.10;99.90
8780;DHT22;62328;51.19929245;4.42130175;2023-02-28T11:22:29;8.10;99.90
8780;DHT22;62328;51.19929245;4.42130175;2023-02-28T11:25:00;8.10;99.90
8780;DHT22;62328;51.19929245;4.42130175;2023-02-28T11:27:47;8.10;99.90
8780;DHT22;62328;51.19929245;4.42130175;2023-02-28T11:30:30;8.10;99.90
8780;DHT22;62328;51.19929245;4.42130175;2023-02-28T11:32:58;8.10;99.90
8780;DHT22;62328;51.19929245;4.42130175;2023-02-28T11:35:29;8.10;99.90
8780;DHT22;62328;51.19929245;4.42130175;2023-02-28T11:37:58;8.10;99.90
8780;DHT22;62328;51.19929245;4.42130175;2023-02-28T11:40:31;8.10;99.90
8780;DHT22;62328;51.19929245;4.42130175;2023-02-28T11:43:09;8.20;99.90
8780;DHT22;62328;51.19929245;4.42130175;2023-02-28T11:45:45;8.20;99.90
8780;DHT22;62328;51.19929245;4.42130175;2023-02-28T11:48:21;8.20;99.90
8780;DHT22;62328;51.19929245;4.42130175;2023-02-28T11:51:05;8.20;99.90
8780;DHT22;62328;51.19929245;4.42130175;2023-02-28T11:53:51;8.20;99.90
8780;DHT22;62328;51.19929245;4.42130175;2023-02-28T11:56:28;8.20;99.90
8780;DHT22;62328;51.19929245;4.42130175;2023-02-28T11:59:08;8.30;99.90
8780;DHT22;62328;51.19929245;4.42130175;2023-02-28T12:01:57;8.30;99.90
8780;DHT22;62328;51.19929245;4.42130175;2023-02-28T12:04:28;8.30;99.90
8780;DHT22;62328;51.19929245;4.42130175;2023-02-28T12:07:06;8.30;99.90
8780;DHT22;62328;51.19929245;4.42130175;2023-02-28T12:09:45;8.20;99.90
8780;DHT22;62328;51.19929245;4.42130175;2023-02-28T12:12:29;8.20;99.90
8780;DHT22;62328;51.19929245;4.42130175;2023-02-28T12:15:37;8.20;99.90
8780;DHT22;62328;51.19929245;4.42130175;2023-02-28T12:21:13;8.30;99.90
8780;DHT22;62328;51.19929245;4.42130175;2023-02-28T12:24:03;8.30;99.90
8780;DHT22;62328;51.19929245;4.42130175;2023-02-28T12:26:44;8.30;99.90
8780;DHT22;62328;51.19929245;4.42130175;2023-02-28T12:29:17;8.30;99.90
8780;DHT22;62328;51.19929245;4.42130175;2023-02-28T12:31:51;8.30;99.90
8780;DHT22;62328;51.19929245;4.42130175;2023-02-28T12:34:21;8.30;99.90
8780;DHT22;62328;51.19929245;4.42130175;2023-02-28T12:36:52;8.40;99.90
8780;DHT22;62328;51.19929245;4.42130175;2023-02-28T12:39:26;8.40;99.90
8780;DHT22;62328;51.19929245;4.42130175;2023-02-28T12:42:00;8.40;99.90
8780;DHT22;62328;51.19929245;4.42130175;2023-02-28T12:44:33;8.50;99.90
8780;DHT22;62328;51.19929245;4.42130175;2023-02-28T12:47:04;8.50;99.90
8780;DHT22;62328;51.19929245;4.42130175;2023-02-28T12:49:34;8.50;99.90
8780;DHT22;62328;51.19929245;4.42130175;2023-02-28T12:52:04;8.60;99.90
8780;DHT22;62328;51.19929245;4.42130175;2023-02-28T12:54:36;8.60;99.90
8780;DHT22;62328;51.19929245;4.42130175;2023-02-28T12:57:09;8.60;99.90
8780;DHT22;62328;51.19929245;4.42130175;2023-02-28T12:59:41;8.60;99.90
8780;DHT22;62328;51.19929245;4.42130175;2023-02-28T13:05:32;8.70;99.90
8780;DHT22;62328;51.19929245;4.42130175;2023-02-28T13:08:24;8.70;99.90
8780;DHT22;62328;51.19929245;4.42130175;2023-02-28T13:10:54;8.60;99.90
8780;DHT22;62328;51.19929245;4.42130175;2023-02-28T13:13:25;8.60;99.90
8780;DHT22;62328;51.19929245;4.42130175;2023-02-28T13:16:03;8.60;99.90
8780;DHT22;62328;51.19929245;4.42130175;2023-02-28T13:18:34;8.60;99.90
8780;DHT22;62328;51.19929245;4.42130175;2023-02-28T13:21:03;8.70;99.90
8780;DHT22;62328;51.19929245;4.42130175;2023-02-28T13:23:58;8.70;99.90
8780;DHT22;62328;51.19929245;4.42130175;2023-02-28T13:29:35;8.80;99.90
8780;DHT22;62328;51.19929245;4.42130175;2023-02-28T13:41:43;8.90;99.90
8780;DHT22;62328;51.19929245;4.42130175;2023-02-28T13:44:12;8.90;99.90
8780;DHT22;62328;51.19929245;4.42130175;2023-02-28T13:49:41;8.70;99.90
8780;DHT22;62328;51.19929245;4.42130175;2023-02-28T13:52:14;8.60;99.90
8780;DHT22;62328;51.19929245;4.42130175;2023-02-28T13:55:01;8.60;99.90
8780;DHT22;62328;51.19929245;4.42130175;2023-02-28T13:57:44;8.60;99.90
8780;DHT22;62328;51.19929245;4.42130175;2023-02-28T14:00:23;8.60;99.90
8780;DHT22;62328;51.19929245;4.42130175;2023-02-28T14:03:06;8.60;99.90
8780;DHT22;62328;51.19929245;4.42130175;2023-02-28T14:05:37;8.50;99.90
8780;DHT22;62328;51.19929245;4.42130175;2023-02-28T14:08:07;8.40;99.90
8780;DHT22;62328;51.19929245;4.42130175;2023-02-28T14:10:42;8.50;99.90
8780;DHT22;62328;51.19929245;4.42130175;2023-02-28T14:13:38;8.50;99.90
8780;DHT22;62328;51.19929245;4.42130175;2023-02-28T14:16:10;8.60;99.90
8780;DHT22;62328;51.19929245;4.42130175;2023-02-28T14:18:41;8.70;99.90
8780;DHT22;62328;51.19929245;4.42130175;2023-02-28T14:21:17;8.70;99.90
8780;DHT22;62328;51.19929245;4.42130175;2023-02-28T14:24:16;8.60;99.90
8780;DHT22;62328;51.19929245;4.42130175;2023-02-28T14:27:13;8.70;99.90
8780;DHT22;62328;51.19929245;4.42130175;2023-02-28T14:30:01;8.70;99.90
8780;DHT22;62328;51.19929245;4.42130175;2023-02-28T14:32:35;8.80;99.90
8780;DHT22;62328;51.19929245;4.42130175;2023-02-28T14:35:11;8.80;99.90